sensor_id;sensor_type;location;lat;lon;timestamp;P1;durP1;ratioP1;P2;durP2;ratioP2
51560;SDS011;37654;51.262;17.058;2023-05-10T00:01:30;7.97;;;4.45;;
51560;SDS011;37654;51.262;17.058;2023-05-10T00:03:55;9.15;;;4.85;;
51560;SDS011;37654;51.262;17.058;2023-05-10T00:06:20;8.57;;;4.72;;
51560;SDS011;37654;51.262;17.058;2023-05-10T00:08:46;8.52;;;4.65;;
51560;SDS011;37654;51.262;17.058;2023-05-10T00:11:11;10.65;;;4.95;;
51560;SDS011;37654;51.262;17.058;2023-05-10T00:13:37;11.52;;;5.10;;
51560;SDS011;37654;51.262;17.058;2023-05-10T00:16:02;12.05;;;5.13;;
51560;SDS011;37654;51.262;17.058;2023-05-10T00:18:28;9.75;;;4.68;;
51560;SDS011;37654;51.262;17.058;2023-05-10T00:20:53;9.02;;;4.63;;
51560;SDS011;37654;51.262;17.058;2023-05-10T00:23:19;11.55;;;4.40;;
51560;SDS011;37654;51.262;17.058;2023-05-10T00:25:44;15.55;;;4.38;;
51560;SDS011;37654;51.262;17.058;2023-05-10T00:28:09;11.95;;;4.65;;
51560;SDS011;37654;51.262;17.058;2023-05-10T00:30:35;11.38;;;5.03;;
51560;SDS011;37654;51.262;17.058;2023-05-10T00:33:00;10.60;;;4.38;;
51560;SDS011;37654;51.262;17.058;2023-05-10T00:35:26;10.63;;;4.57;;
51560;SDS011;37654;51.262;17.058;2023-05-10T00:37:51;9.40;;;4.65;;
51560;SDS011;37654;51.262;17.058;2023-05-10T00:40:17;12.90;;;5.70;;
51560;SDS011;37654;51.262;17.058;2023-05-10T00:42:42;13.27;;;5.35;;
51560;SDS011;37654;51.262;17.058;2023-05-10T00:45:08;13.32;;;5.43;;
51560;SDS011;37654;51.262;17.058;2023-05-10T00:47:33;11.82;;;4.45;;
51560;SDS011;37654;51.262;17.058;2023-05-10T00:49:59;8.95;;;4.53;;
51560;SDS011;37654;51.262;17.058;2023-05-10T00:52:28;10.13;;;4.13;;
51560;SDS011;37654;51.262;17.058;2023-05-10T00:54:55;9.15;;;4.45;;
51560;SDS011;37654;51.262;17.058;2023-05-10T00:57:21;13.70;;;5.47;;
51560;SDS011;37654;51.262;17.058;2023-05-10T00:59:46;10.35;;;4.70;;
51560;SDS011;37654;51.262;17.058;2023-05-10T01:02:13;11.77;;;5.15;;
51560;SDS011;37654;51.262;17.058;2023-05-10T01:04:38;12.25;;;4.88;;
51560;SDS011;37654;51.262;17.058;2023-05-10T01:07:04;7.72;;;4.47;;
51560;SDS011;37654;51.262;17.058;2023-05-10T01:09:30;11.57;;;5.03;;
51560;SDS011;37654;51.262;17.058;2023-05-10T01:11:56;12.90;;;5.43;;
51560;SDS011;37654;51.262;17.058;2023-05-10T01:14:21;17.02;;;5.40;;
51560;SDS011;37654;51.262;17.058;2023-05-10T01:16:48;10.77;;;4.30;;
51560;SDS011;37654;51.262;17.058;2023-05-10T01:19:32;19.88;;;6.22;;
51560;SDS011;37654;51.262;17.058;2023-05-10T01:33:15;13.63;;;5.60;;
51560;SDS011;37654;51.262;17.058;2023-05-10T01:46:39;13.63;;;5.00;;
51560;SDS011;37654;51.262;17.058;2023-05-10T01:49:14;10.65;;;5.07;;
51560;SDS011;37654;51.262;17.058;2023-05-10T01:51:47;10.80;;;5.07;;
51560;SDS011;37654;51.262;17.058;2023-05-10T01:54:17;8.90;;;4.25;;
51560;SDS011;37654;51.262;17.058;2023-05-10T01:56:45;10.13;;;5.47;;
51560;SDS011;37654;51.262;17.058;2023-05-10T01:59:17;13.02;;;5.38;;
51560;SDS011;37654;51.262;17.058;2023-05-10T02:01:44;13.02;;;5.43;;
51560;SDS011;37654;51.262;17.058;2023-05-10T02:04:11;9.15;;;4.70;;
51560;SDS011;37654;51.262;17.058;2023-05-10T02:06:40;10.98;;;4.88;;
51560;SDS011;37654;51.262;17.058;2023-05-10T02:09:07;11.75;;;5.00;;
51560;SDS011;37654;51.262;17.058;2023-05-10T02:11:37;9.43;;;4.93;;
51560;SDS011;37654;51.262;17.058;2023-05-10T02:14:03;11.65;;;4.70;;
51560;SDS011;37654;51.262;17.058;2023-05-10T02:16:32;13.65;;;5.45;;
51560;SDS011;37654;51.262;17.058;2023-05-10T02:19:00;10.77;;;4.45;;
51560;SDS011;37654;51.262;17.058;2023-05-10T02:21:27;12.43;;;5.30;;
51560;SDS011;37654;51.262;17.058;2023-05-10T02:23:54;9.50;;;4.68;;
51560;SDS011;37654;51.262;17.058;2023-05-10T02:26:21;9.85;;;5.25;;
51560;SDS011;37654;51.262;17.058;2023-05-10T02:28:50;12.95;;;5.72;;
51560;SDS011;37654;51.262;17.058;2023-05-10T02:31:17;11.98;;;5.07;;
51560;SDS011;37654;51.262;17.058;2023-05-10T02:33:43;12.95;;;5.63;;
51560;SDS011;37654;51.262;17.058;2023-05-10T02:36:10;9.30;;;4.70;;
51560;SDS011;37654;51.262;17.058;2023-05-10T02:38:38;9.43;;;4.95;;
51560;SDS011;37654;51.262;17.058;2023-05-10T02:41:05;12.48;;;5.43;;
51560;SDS011;37654;51.262;17.058;2023-05-10T02:43:33;13.68;;;5.47;;
51560;SDS011;37654;51.262;17.058;2023-05-10T02:46:00;12.82;;;5.10;;
51560;SDS011;37654;51.262;17.058;2023-05-10T02:48:26;9.02;;;4.70;;
51560;SDS011;37654;51.262;17.058;2023-05-10T02:50:52;12.65;;;5.38;;
51560;SDS011;37654;51.262;17.058;2023-05-10T02:53:23;10.15;;;5.47;;
51560;SDS011;37654;51.262;17.058;2023-05-10T02:55:57;9.73;;;5.00;;
51560;SDS011;37654;51.262;17.058;2023-05-10T02:58:25;9.38;;;4.40;;
51560;SDS011;37654;51.262;17.058;2023-05-10T03:00:51;10.68;;;4.85;;
51560;SDS011;37654;51.262;17.058;2023-05-10T03:03:17;12.70;;;4.93;;
51560;SDS011;37654;51.262;17.058;2023-05-10T03:05:42;12.52;;;6.05;;
51560;SDS011;37654;51.262;17.058;2023-05-10T03:08:08;10.80;;;4.95;;
51560;SDS011;37654;51.262;17.058;2023-05-10T03:10:33;11.25;;;4.82;;
51560;SDS011;37654;51.262;17.058;2023-05-10T03:13:24;8.90;;;4.40;;
51560;SDS011;37654;51.262;17.058;2023-05-10T03:18:44;11.88;;;5.35;;
51560;SDS011;37654;51.262;17.058;2023-05-10T03:21:16;15.07;;;5.73;;
51560;SDS011;37654;51.262;17.058;2023-05-10T03:24:26;12.60;;;5.00;;
51560;SDS011;37654;51.262;17.058;2023-05-10T03:26:33;10.98;;;4.88;;
51560;SDS011;37654;51.262;17.058;2023-05-10T03:28:59;16.00;;;5.40;;
51560;SDS011;37654;51.262;17.058;2023-05-10T03:31:26;9.93;;;5.30;;
51560;SDS011;37654;51.262;17.058;2023-05-10T03:33:52;10.10;;;5.45;;
51560;SDS011;37654;51.262;17.058;2023-05-10T03:36:18;12.20;;;5.93;;
51560;SDS011;37654;51.262;17.058;2023-05-10T03:38:44;8.73;;;4.40;;
51560;SDS011;37654;51.262;17.058;2023-05-10T03:41:10;12.25;;;4.78;;
51560;SDS011;37654;51.262;17.058;2023-05-10T03:43:36;11.27;;;6.40;;
51560;SDS011;37654;51.262;17.058;2023-05-10T03:46:04;12.93;;;6.03;;
51560;SDS011;37654;51.262;17.058;2023-05-10T03:48:31;11.60;;;4.90;;
51560;SDS011;37654;51.262;17.058;2023-05-10T03:50:57;10.50;;;5.55;;
51560;SDS011;37654;51.262;17.058;2023-05-10T03:53:23;10.57;;;5.00;;
51560;SDS011;37654;51.262;17.058;2023-05-10T03:55:48;10.10;;;4.85;;
51560;SDS011;37654;51.262;17.058;2023-05-10T03:58:14;11.27;;;4.70;;
51560;SDS011;37654;51.262;17.058;2023-05-10T04:00:40;9.48;;;4.72;;
51560;SDS011;37654;51.262;17.058;2023-05-10T04:03:09;13.88;;;4.82;;
51560;SDS011;37654;51.262;17.058;2023-05-10T04:05:35;11.60;;;5.13;;
51560;SDS011;37654;51.262;17.058;2023-05-10T04:08:01;10.15;;;4.88;;
51560;SDS011;37654;51.262;17.058;2023-05-10T04:10:26;14.30;;;5.00;;
51560;SDS011;37654;51.262;17.058;2023-05-10T04:12:52;12.20;;;4.95;;
51560;SDS011;37654;51.262;17.058;2023-05-10T04:15:17;11.02;;;5.20;;
51560;SDS011;37654;51.262;17.058;2023-05-10T04:17:42;13.52;;;5.75;;
51560;SDS011;37654;51.262;17.058;2023-05-10T04:20:08;10.52;;;5.80;;
51560;SDS011;37654;51.262;17.058;2023-05-10T04:22:34;10.90;;;5.28;;
51560;SDS011;37654;51.262;17.058;2023-05-10T04:24:59;10.15;;;5.15;;
51560;SDS011;37654;51.262;17.058;2023-05-10T04:27:25;9.75;;;5.50;;
51560;SDS011;37654;51.262;17.058;2023-05-10T04:29:50;13.52;;;5.63;;
51560;SDS011;37654;51.262;17.058;2023-05-10T04:32:16;10.52;;;4.95;;
51560;SDS011;37654;51.262;17.058;2023-05-10T04:34:42;11.13;;;5.32;;
51560;SDS011;37654;51.262;17.058;2023-05-10T04:37:08;11.35;;;5.43;;
51560;SDS011;37654;51.262;17.058;2023-05-10T04:39:33;10.50;;;4.80;;
51560;SDS011;37654;51.262;17.058;2023-05-10T04:42:00;10.23;;;4.75;;
51560;SDS011;37654;51.262;17.058;2023-05-10T04:44:25;8.57;;;5.18;;
51560;SDS011;37654;51.262;17.058;2023-05-10T04:46:51;8.75;;;5.25;;
51560;SDS011;37654;51.262;17.058;2023-05-10T04:49:16;9.30;;;5.18;;
51560;SDS011;37654;51.262;17.058;2023-05-10T04:51:42;10.73;;;4.85;;
51560;SDS011;37654;51.262;17.058;2023-05-10T04:54:08;11.13;;;5.20;;
51560;SDS011;37654;51.262;17.058;2023-05-10T04:56:33;9.77;;;4.68;;
51560;SDS011;37654;51.262;17.058;2023-05-10T04:58:59;14.02;;;5.88;;
51560;SDS011;37654;51.262;17.058;2023-05-10T05:01:24;9.30;;;5.38;;
51560;SDS011;37654;51.262;17.058;2023-05-10T05:03:50;10.05;;;5.05;;
51560;SDS011;37654;51.262;17.058;2023-05-10T05:06:17;8.00;;;4.40;;
51560;SDS011;37654;51.262;17.058;2023-05-10T05:08:43;13.50;;;5.18;;
51560;SDS011;37654;51.262;17.058;2023-05-10T05:11:08;9.13;;;4.95;;
51560;SDS011;37654;51.262;17.058;2023-05-10T05:13:34;14.55;;;4.97;;
51560;SDS011;37654;51.262;17.058;2023-05-10T05:16:00;14.93;;;4.85;;
51560;SDS011;37654;51.262;17.058;2023-05-10T05:18:27;7.13;;;4.32;;
51560;SDS011;37654;51.262;17.058;2023-05-10T05:20:53;7.88;;;4.60;;
51560;SDS011;37654;51.262;17.058;2023-05-10T05:23:18;13.38;;;5.45;;
51560;SDS011;37654;51.262;17.058;2023-05-10T05:25:45;13.38;;;5.72;;
51560;SDS011;37654;51.262;17.058;2023-05-10T05:28:11;10.50;;;4.63;;
51560;SDS011;37654;51.262;17.058;2023-05-10T05:30:37;9.15;;;4.75;;
51560;SDS011;37654;51.262;17.058;2023-05-10T05:33:02;10.77;;;4.45;;
51560;SDS011;37654;51.262;17.058;2023-05-10T05:35:28;10.07;;;4.85;;
51560;SDS011;37654;51.262;17.058;2023-05-10T05:37:53;10.70;;;4.97;;
51560;SDS011;37654;51.262;17.058;2023-05-10T05:40:19;18.02;;;4.30;;
51560;SDS011;37654;51.262;17.058;2023-05-10T05:42:45;7.53;;;4.18;;
51560;SDS011;37654;51.262;17.058;2023-05-10T05:45:11;9.10;;;4.18;;
51560;SDS011;37654;51.262;17.058;2023-05-10T05:47:38;9.25;;;4.57;;
51560;SDS011;37654;51.262;17.058;2023-05-10T05:50:04;7.78;;;3.60;;
51560;SDS011;37654;51.262;17.058;2023-05-10T05:52:30;14.20;;;5.32;;
51560;SDS011;37654;51.262;17.058;2023-05-10T05:54:56;12.20;;;4.00;;
51560;SDS011;37654;51.262;17.058;2023-05-10T05:57:21;10.82;;;4.22;;
51560;SDS011;37654;51.262;17.058;2023-05-10T05:59:46;14.60;;;5.00;;
51560;SDS011;37654;51.262;17.058;2023-05-10T06:02:12;10.98;;;5.15;;
51560;SDS011;37654;51.262;17.058;2023-05-10T06:04:38;12.07;;;4.43;;
51560;SDS011;37654;51.262;17.058;2023-05-10T06:07:03;13.55;;;4.45;;
51560;SDS011;37654;51.262;17.058;2023-05-10T06:09:28;8.52;;;4.00;;
51560;SDS011;37654;51.262;17.058;2023-05-10T06:11:54;9.93;;;3.95;;
51560;SDS011;37654;51.262;17.058;2023-05-10T06:14:20;10.15;;;3.95;;
51560;SDS011;37654;51.262;17.058;2023-05-10T06:16:46;11.77;;;3.63;;
51560;SDS011;37654;51.262;17.058;2023-05-10T06:19:11;9.50;;;4.28;;
51560;SDS011;37654;51.262;17.058;2023-05-10T06:21:37;7.55;;;4.10;;
51560;SDS011;37654;51.262;17.058;2023-05-10T06:24:02;7.68;;;3.47;;
51560;SDS011;37654;51.262;17.058;2023-05-10T06:26:28;20.48;;;6.50;;
51560;SDS011;37654;51.262;17.058;2023-05-10T06:28:53;9.65;;;4.00;;
51560;SDS011;37654;51.262;17.058;2023-05-10T06:31:19;9.20;;;3.83;;
51560;SDS011;37654;51.262;17.058;2023-05-10T06:33:44;10.50;;;4.85;;
51560;SDS011;37654;51.262;17.058;2023-05-10T06:36:10;9.70;;;3.70;;
51560;SDS011;37654;51.262;17.058;2023-05-10T06:38:36;15.82;;;3.75;;
51560;SDS011;37654;51.262;17.058;2023-05-10T06:41:01;13.13;;;3.80;;
51560;SDS011;37654;51.262;17.058;2023-05-10T06:43:26;5.35;;;3.15;;
51560;SDS011;37654;51.262;17.058;2023-05-10T06:45:53;8.48;;;4.00;;
51560;SDS011;37654;51.262;17.058;2023-05-10T06:48:19;5.85;;;3.40;;
51560;SDS011;37654;51.262;17.058;2023-05-10T06:50:44;20.77;;;4.55;;
51560;SDS011;37654;51.262;17.058;2023-05-10T06:53:12;9.85;;;3.15;;
51560;SDS011;37654;51.262;17.058;2023-05-10T06:55:38;6.15;;;3.00;;
51560;SDS011;37654;51.262;17.058;2023-05-10T06:58:04;6.82;;;2.60;;
51560;SDS011;37654;51.262;17.058;2023-05-10T07:00:30;4.50;;;2.80;;
51560;SDS011;37654;51.262;17.058;2023-05-10T07:02:55;7.38;;;2.78;;
51560;SDS011;37654;51.262;17.058;2023-05-10T07:05:21;5.10;;;2.60;;
51560;SDS011;37654;51.262;17.058;2023-05-10T07:07:46;7.80;;;2.88;;
51560;SDS011;37654;51.262;17.058;2023-05-10T07:10:12;7.57;;;3.13;;
51560;SDS011;37654;51.262;17.058;2023-05-10T07:12:38;10.20;;;3.53;;
51560;SDS011;37654;51.262;17.058;2023-05-10T07:15:04;9.65;;;2.97;;
51560;SDS011;37654;51.262;17.058;2023-05-10T07:17:30;6.40;;;3.03;;
51560;SDS011;37654;51.262;17.058;2023-05-10T07:19:55;6.93;;;2.90;;
51560;SDS011;37654;51.262;17.058;2023-05-10T07:22:21;6.60;;;2.80;;
51560;SDS011;37654;51.262;17.058;2023-05-10T07:24:46;9.25;;;3.00;;
51560;SDS011;37654;51.262;17.058;2023-05-10T07:27:11;3.50;;;2.20;;
51560;SDS011;37654;51.262;17.058;2023-05-10T07:29:38;5.20;;;2.55;;
51560;SDS011;37654;51.262;17.058;2023-05-10T07:32:03;10.85;;;2.70;;
51560;SDS011;37654;51.262;17.058;2023-05-10T07:34:29;6.97;;;2.70;;
51560;SDS011;37654;51.262;17.058;2023-05-10T07:36:58;5.88;;;2.45;;
51560;SDS011;37654;51.262;17.058;2023-05-10T07:39:24;3.75;;;2.42;;
51560;SDS011;37654;51.262;17.058;2023-05-10T07:41:51;9.43;;;3.92;;
51560;SDS011;37654;51.262;17.058;2023-05-10T07:44:16;7.55;;;2.60;;
51560;SDS011;37654;51.262;17.058;2023-05-10T07:46:44;4.03;;;2.38;;
51560;SDS011;37654;51.262;17.058;2023-05-10T07:49:09;7.60;;;2.75;;
51560;SDS011;37654;51.262;17.058;2023-05-10T07:51:34;5.63;;;2.85;;
51560;SDS011;37654;51.262;17.058;2023-05-10T07:54:00;4.05;;;2.25;;
51560;SDS011;37654;51.262;17.058;2023-05-10T07:56:28;12.93;;;3.33;;
51560;SDS011;37654;51.262;17.058;2023-05-10T07:59:00;14.10;;;4.55;;
51560;SDS011;37654;51.262;17.058;2023-05-10T08:01:29;8.43;;;3.15;;
51560;SDS011;37654;51.262;17.058;2023-05-10T08:03:57;7.78;;;2.85;;
51560;SDS011;37654;51.262;17.058;2023-05-10T08:06:22;5.55;;;3.22;;
51560;SDS011;37654;51.262;17.058;2023-05-10T08:08:48;6.22;;;3.03;;
51560;SDS011;37654;51.262;17.058;2023-05-10T08:11:17;8.52;;;2.95;;
51560;SDS011;37654;51.262;17.058;2023-05-10T08:13:43;6.10;;;3.03;;
51560;SDS011;37654;51.262;17.058;2023-05-10T08:16:12;12.02;;;4.07;;
51560;SDS011;37654;51.262;17.058;2023-05-10T08:18:38;5.30;;;3.08;;
51560;SDS011;37654;51.262;17.058;2023-05-10T08:21:04;9.10;;;3.47;;
51560;SDS011;37654;51.262;17.058;2023-05-10T08:23:30;5.95;;;3.85;;
51560;SDS011;37654;51.262;17.058;2023-05-10T08:25:56;5.88;;;3.40;;
51560;SDS011;37654;51.262;17.058;2023-05-10T08:28:21;11.90;;;3.17;;
51560;SDS011;37654;51.262;17.058;2023-05-10T08:30:47;5.68;;;3.13;;
51560;SDS011;37654;51.262;17.058;2023-05-10T08:33:12;8.55;;;3.50;;
51560;SDS011;37654;51.262;17.058;2023-05-10T08:35:38;7.15;;;3.17;;
51560;SDS011;37654;51.262;17.058;2023-05-10T08:38:03;6.30;;;3.50;;
51560;SDS011;37654;51.262;17.058;2023-05-10T08:40:28;8.52;;;3.55;;
51560;SDS011;37654;51.262;17.058;2023-05-10T08:43:12;10.13;;;3.50;;
51560;SDS011;37654;51.262;17.058;2023-05-10T08:45:41;10.63;;;3.53;;
51560;SDS011;37654;51.262;17.058;2023-05-10T08:48:08;5.63;;;3.58;;
51560;SDS011;37654;51.262;17.058;2023-05-10T08:50:41;5.65;;;3.35;;
51560;SDS011;37654;51.262;17.058;2023-05-10T08:53:12;8.02;;;3.40;;
51560;SDS011;37654;51.262;17.058;2023-05-10T08:55:38;6.32;;;3.40;;
51560;SDS011;37654;51.262;17.058;2023-05-10T08:58:07;7.07;;;3.88;;
51560;SDS011;37654;51.262;17.058;2023-05-10T09:00:33;3.92;;;3.33;;
51560;SDS011;37654;51.262;17.058;2023-05-10T09:03:00;5.53;;;3.40;;
51560;SDS011;37654;51.262;17.058;2023-05-10T09:05:26;4.97;;;3.58;;
51560;SDS011;37654;51.262;17.058;2023-05-10T09:07:53;6.65;;;3.50;;
51560;SDS011;37654;51.262;17.058;2023-05-10T09:10:19;10.63;;;3.42;;
51560;SDS011;37654;51.262;17.058;2023-05-10T09:12:45;6.43;;;3.22;;
51560;SDS011;37654;51.262;17.058;2023-05-10T09:15:11;4.57;;;3.17;;
51560;SDS011;37654;51.262;17.058;2023-05-10T09:17:40;12.07;;;3.75;;
51560;SDS011;37654;51.262;17.058;2023-05-10T09:20:07;4.13;;;3.35;;
51560;SDS011;37654;51.262;17.058;2023-05-10T09:22:33;5.65;;;3.10;;
51560;SDS011;37654;51.262;17.058;2023-05-10T09:27:40;6.35;;;3.53;;
51560;SDS011;37654;51.262;17.058;2023-05-10T09:30:07;6.93;;;3.17;;
51560;SDS011;37654;51.262;17.058;2023-05-10T09:32:36;9.60;;;3.67;;
51560;SDS011;37654;51.262;17.058;2023-05-10T09:35:13;6.65;;;3.03;;
51560;SDS011;37654;51.262;17.058;2023-05-10T09:37:43;5.00;;;2.92;;
51560;SDS011;37654;51.262;17.058;2023-05-10T09:40:11;4.88;;;3.25;;
51560;SDS011;37654;51.262;17.058;2023-05-10T09:42:52;4.05;;;2.88;;
51560;SDS011;37654;51.262;17.058;2023-05-10T09:45:27;3.92;;;2.80;;
51560;SDS011;37654;51.262;17.058;2023-05-10T09:47:55;7.10;;;3.10;;
51560;SDS011;37654;51.262;17.058;2023-05-10T09:50:22;6.55;;;3.42;;
51560;SDS011;37654;51.262;17.058;2023-05-10T09:52:55;3.33;;;3.03;;
51560;SDS011;37654;51.262;17.058;2023-05-10T09:55:25;3.75;;;3.40;;
51560;SDS011;37654;51.262;17.058;2023-05-10T09:58:05;4.65;;;3.20;;
51560;SDS011;37654;51.262;17.058;2023-05-10T10:00:41;4.07;;;2.90;;
51560;SDS011;37654;51.262;17.058;2023-05-10T10:03:18;3.92;;;2.65;;
51560;SDS011;37654;51.262;17.058;2023-05-10T10:05:45;7.38;;;3.03;;
51560;SDS011;37654;51.262;17.058;2023-05-10T10:08:12;7.10;;;3.30;;
51560;SDS011;37654;51.262;17.058;2023-05-10T10:10:38;4.47;;;3.00;;
51560;SDS011;37654;51.262;17.058;2023-05-10T10:13:05;8.88;;;2.53;;
51560;SDS011;37654;51.262;17.058;2023-05-10T10:15:31;6.25;;;3.45;;
51560;SDS011;37654;51.262;17.058;2023-05-10T10:17:58;3.20;;;2.80;;
51560;SDS011;37654;51.262;17.058;2023-05-10T10:20:24;5.95;;;3.03;;
51560;SDS011;37654;51.262;17.058;2023-05-10T10:22:51;10.93;;;4.10;;
51560;SDS011;37654;51.262;17.058;2023-05-10T10:25:16;4.03;;;2.90;;
51560;SDS011;37654;51.262;17.058;2023-05-10T10:35:44;7.20;;;2.70;;
51560;SDS011;37654;51.262;17.058;2023-05-10T10:38:12;6.13;;;2.75;;
51560;SDS011;37654;51.262;17.058;2023-05-10T10:40:38;5.22;;;3.10;;
51560;SDS011;37654;51.262;17.058;2023-05-10T10:48:35;7.72;;;2.95;;
51560;SDS011;37654;51.262;17.058;2023-05-10T10:51:01;4.90;;;2.55;;
51560;SDS011;37654;51.262;17.058;2023-05-10T10:53:27;4.97;;;2.72;;
51560;SDS011;37654;51.262;17.058;2023-05-10T10:56:04;9.30;;;2.40;;
51560;SDS011;37654;51.262;17.058;2023-05-10T10:58:33;7.03;;;2.95;;
51560;SDS011;37654;51.262;17.058;2023-05-10T11:03:40;3.50;;;2.78;;
51560;SDS011;37654;51.262;17.058;2023-05-10T11:06:10;8.65;;;3.08;;
51560;SDS011;37654;51.262;17.058;2023-05-10T11:08:42;6.95;;;2.55;;
51560;SDS011;37654;51.262;17.058;2023-05-10T11:11:09;3.80;;;2.67;;
51560;SDS011;37654;51.262;17.058;2023-05-10T11:13:37;10.07;;;2.95;;
51560;SDS011;37654;51.262;17.058;2023-05-10T11:16:14;4.18;;;2.45;;
51560;SDS011;37654;51.262;17.058;2023-05-10T11:18:53;7.05;;;2.65;;
51560;SDS011;37654;51.262;17.058;2023-05-10T11:21:22;4.13;;;2.65;;
51560;SDS011;37654;51.262;17.058;2023-05-10T11:23:49;3.63;;;2.53;;
51560;SDS011;37654;51.262;17.058;2023-05-10T11:26:16;6.10;;;2.80;;
51560;SDS011;37654;51.262;17.058;2023-05-10T11:28:42;7.97;;;3.08;;
51560;SDS011;37654;51.262;17.058;2023-05-10T11:31:09;6.38;;;2.65;;
51560;SDS011;37654;51.262;17.058;2023-05-10T11:36:20;4.57;;;2.60;;
51560;SDS011;37654;51.262;17.058;2023-05-10T11:38:47;5.10;;;3.10;;
51560;SDS011;37654;51.262;17.058;2023-05-10T11:41:13;4.63;;;2.67;;
51560;SDS011;37654;51.262;17.058;2023-05-10T11:43:40;4.28;;;2.78;;
51560;SDS011;37654;51.262;17.058;2023-05-10T11:46:10;5.28;;;2.38;;
51560;SDS011;37654;51.262;17.058;2023-05-10T11:48:40;10.10;;;2.95;;
51560;SDS011;37654;51.262;17.058;2023-05-10T11:51:06;3.15;;;2.35;;
51560;SDS011;37654;51.262;17.058;2023-05-10T11:53:33;8.55;;;2.78;;
51560;SDS011;37654;51.262;17.058;2023-05-10T11:56:08;7.45;;;2.65;;
51560;SDS011;37654;51.262;17.058;2023-05-10T11:58:35;4.15;;;2.42;;
51560;SDS011;37654;51.262;17.058;2023-05-10T12:01:02;8.60;;;2.55;;
51560;SDS011;37654;51.262;17.058;2023-05-10T12:03:28;4.88;;;2.53;;
51560;SDS011;37654;51.262;17.058;2023-05-10T12:05:54;7.68;;;1.98;;
51560;SDS011;37654;51.262;17.058;2023-05-10T12:08:24;5.10;;;2.58;;
51560;SDS011;37654;51.262;17.058;2023-05-10T12:10:51;13.38;;;2.10;;
51560;SDS011;37654;51.262;17.058;2023-05-10T12:13:18;5.13;;;2.03;;
51560;SDS011;37654;51.262;17.058;2023-05-10T12:15:45;4.15;;;2.33;;
51560;SDS011;37654;51.262;17.058;2023-05-10T12:18:14;3.72;;;2.42;;
51560;SDS011;37654;51.262;17.058;2023-05-10T12:20:40;5.22;;;2.58;;
51560;SDS011;37654;51.262;17.058;2023-05-10T12:23:08;4.15;;;2.35;;
51560;SDS011;37654;51.262;17.058;2023-05-10T12:25:35;5.95;;;2.45;;
51560;SDS011;37654;51.262;17.058;2023-05-10T12:28:02;5.20;;;2.05;;
51560;SDS011;37654;51.262;17.058;2023-05-10T12:30:30;6.18;;;2.53;;
51560;SDS011;37654;51.262;17.058;2023-05-10T12:33:15;5.20;;;2.50;;
51560;SDS011;37654;51.262;17.058;2023-05-10T12:35:46;5.63;;;2.78;;
51560;SDS011;37654;51.262;17.058;2023-05-10T12:40:50;4.47;;;2.25;;
51560;SDS011;37654;51.262;17.058;2023-05-10T12:43:16;5.97;;;2.05;;
51560;SDS011;37654;51.262;17.058;2023-05-10T12:45:41;5.28;;;2.17;;
51560;SDS011;37654;51.262;17.058;2023-05-10T12:48:07;6.70;;;2.30;;
51560;SDS011;37654;51.262;17.058;2023-05-10T12:50:32;6.45;;;2.53;;
51560;SDS011;37654;51.262;17.058;2023-05-10T12:52:58;3.90;;;1.90;;
51560;SDS011;37654;51.262;17.058;2023-05-10T12:55:23;5.70;;;2.28;;
51560;SDS011;37654;51.262;17.058;2023-05-10T12:57:49;7.18;;;2.40;;
51560;SDS011;37654;51.262;17.058;2023-05-10T13:00:14;8.88;;;2.05;;
51560;SDS011;37654;51.262;17.058;2023-05-10T13:02:40;4.20;;;1.70;;
51560;SDS011;37654;51.262;17.058;2023-05-10T13:05:05;3.08;;;2.20;;
51560;SDS011;37654;51.262;17.058;2023-05-10T13:07:31;3.30;;;1.90;;
51560;SDS011;37654;51.262;17.058;2023-05-10T13:09:57;7.00;;;1.95;;
51560;SDS011;37654;51.262;17.058;2023-05-10T13:12:22;4.63;;;2.05;;
51560;SDS011;37654;51.262;17.058;2023-05-10T13:14:48;3.15;;;1.95;;
51560;SDS011;37654;51.262;17.058;2023-05-10T13:17:13;3.65;;;1.80;;
51560;SDS011;37654;51.262;17.058;2023-05-10T13:19:38;10.35;;;2.53;;
51560;SDS011;37654;51.262;17.058;2023-05-10T13:22:04;6.32;;;2.42;;
51560;SDS011;37654;51.262;17.058;2023-05-10T13:24:30;5.03;;;2.15;;
51560;SDS011;37654;51.262;17.058;2023-05-10T13:26:55;2.83;;;1.60;;
51560;SDS011;37654;51.262;17.058;2023-05-10T13:29:21;2.42;;;1.90;;
51560;SDS011;37654;51.262;17.058;2023-05-10T13:31:47;3.00;;;1.83;;
51560;SDS011;37654;51.262;17.058;2023-05-10T13:34:13;6.15;;;1.98;;
51560;SDS011;37654;51.262;17.058;2023-05-10T13:36:38;2.83;;;1.70;;
51560;SDS011;37654;51.262;17.058;2023-05-10T13:39:04;3.58;;;2.00;;
51560;SDS011;37654;51.262;17.058;2023-05-10T13:41:30;6.45;;;1.90;;
51560;SDS011;37654;51.262;17.058;2023-05-10T13:43:55;3.55;;;1.70;;
51560;SDS011;37654;51.262;17.058;2023-05-10T13:46:21;3.10;;;1.98;;
51560;SDS011;37654;51.262;17.058;2023-05-10T13:48:46;3.17;;;1.83;;
51560;SDS011;37654;51.262;17.058;2023-05-10T13:51:12;7.07;;;2.22;;
51560;SDS011;37654;51.262;17.058;2023-05-10T13:53:37;2.47;;;1.77;;
51560;SDS011;37654;51.262;17.058;2023-05-10T13:56:03;1.77;;;1.30;;
51560;SDS011;37654;51.262;17.058;2023-05-10T13:58:29;2.85;;;1.60;;
51560;SDS011;37654;51.262;17.058;2023-05-10T14:00:55;8.20;;;1.95;;
51560;SDS011;37654;51.262;17.058;2023-05-10T14:03:20;3.42;;;1.70;;
51560;SDS011;37654;51.262;17.058;2023-05-10T14:05:46;6.63;;;1.52;;
51560;SDS011;37654;51.262;17.058;2023-05-10T14:08:12;4.10;;;1.63;;
51560;SDS011;37654;51.262;17.058;2023-05-10T14:10:38;5.15;;;1.52;;
51560;SDS011;37654;51.262;17.058;2023-05-10T14:13:04;5.35;;;1.98;;
51560;SDS011;37654;51.262;17.058;2023-05-10T14:15:29;15.40;;;2.00;;
51560;SDS011;37654;51.262;17.058;2023-05-10T14:17:55;5.93;;;1.95;;
51560;SDS011;37654;51.262;17.058;2023-05-10T14:20:21;7.57;;;2.10;;
51560;SDS011;37654;51.262;17.058;2023-05-10T14:22:46;4.43;;;1.60;;
51560;SDS011;37654;51.262;17.058;2023-05-10T14:25:12;3.60;;;1.65;;
51560;SDS011;37654;51.262;17.058;2023-05-10T14:27:38;8.27;;;1.92;;
51560;SDS011;37654;51.262;17.058;2023-05-10T14:30:04;2.80;;;1.77;;
51560;SDS011;37654;51.262;17.058;2023-05-10T14:32:29;3.55;;;1.80;;
51560;SDS011;37654;51.262;17.058;2023-05-10T14:34:57;5.97;;;1.90;;
51560;SDS011;37654;51.262;17.058;2023-05-10T14:37:22;5.20;;;2.03;;
51560;SDS011;37654;51.262;17.058;2023-05-10T14:39:47;3.65;;;1.67;;
51560;SDS011;37654;51.262;17.058;2023-05-10T14:42:13;4.88;;;1.75;;
51560;SDS011;37654;51.262;17.058;2023-05-10T14:44:38;2.15;;;1.50;;
51560;SDS011;37654;51.262;17.058;2023-05-10T14:47:04;3.63;;;1.45;;
51560;SDS011;37654;51.262;17.058;2023-05-10T14:49:30;8.82;;;1.83;;
51560;SDS011;37654;51.262;17.058;2023-05-10T14:51:55;2.55;;;1.30;;
51560;SDS011;37654;51.262;17.058;2023-05-10T14:54:21;24.10;;;2.47;;
51560;SDS011;37654;51.262;17.058;2023-05-10T14:56:46;2.13;;;1.48;;
51560;SDS011;37654;51.262;17.058;2023-05-10T14:59:13;3.78;;;1.45;;
51560;SDS011;37654;51.262;17.058;2023-05-10T15:01:39;4.68;;;1.95;;
51560;SDS011;37654;51.262;17.058;2023-05-10T15:04:06;6.10;;;2.33;;
51560;SDS011;37654;51.262;17.058;2023-05-10T15:06:32;2.20;;;1.60;;
51560;SDS011;37654;51.262;17.058;2023-05-10T15:08:59;3.92;;;1.65;;
51560;SDS011;37654;51.262;17.058;2023-05-10T15:11:25;7.18;;;1.63;;
51560;SDS011;37654;51.262;17.058;2023-05-10T15:13:51;2.20;;;1.60;;
51560;SDS011;37654;51.262;17.058;2023-05-10T15:16:17;4.13;;;1.45;;
51560;SDS011;37654;51.262;17.058;2023-05-10T15:18:42;3.85;;;1.70;;